Time;durP1;ratioP1;P1;durP2;ratioP2;P2;SDS_P1;SDS_P2;PMS_P1;PMS_P2;Temp;Humidity;BMP_temperature;BMP_pressure;BME280_temperature;BME280_humidity;BME280_pressure;Samples;Min_cycle;Max_cycle;Signal;HPM_P1;HPM_P2
2023/05/06 00:00:12;;;;;;;;;2.00;1.00;;;;;17.68;100.00;101346.44;5053955;28;54225;-73
2023/05/06 00:02:37;;;;;;;;;3.00;1.00;;;;;17.66;100.00;101345.56;5055571;28;45459;-74
2023/05/06 00:05:03;;;;;;;;;0.67;0.67;;;;;17.64;100.00;101353.59;5051415;28;63041;-72
2023/05/06 00:07:29;;;;;;;;;1.00;1.00;;;;;17.64;100.00;101350.94;5057273;28;45358;-73
2023/05/06 00:09:54;;;;;;;;;3.67;1.00;;;;;17.62;100.00;101344.69;5057302;28;45491;-74
2023/05/06 00:12:19;;;;;;;;;3.00;1.00;;;;;17.63;100.00;101349.16;5051002;28;45549;-73
2023/05/06 00:14:45;;;;;;;;;2.00;0.33;;;;;17.63;100.00;101341.16;5053394;28;59245;-72
2023/05/06 00:17:10;;;;;;;;;0.00;0.00;;;;;17.64;100.00;101342.03;5044794;28;62600;-73
2023/05/06 00:19:35;;;;;;;;;1.00;1.00;;;;;17.63;100.00;101341.16;5053462;28;45716;-73
2023/05/06 00:22:01;;;;;;;;;1.00;1.00;;;;;17.64;100.00;101337.59;5056531;28;62503;-73
2023/05/06 00:24:26;;;;;;;;;1.00;1.00;;;;;17.65;100.00;101338.47;5070221;28;64432;-74
2023/05/06 00:26:52;;;;;;;;;0.67;0.67;;;;;17.62;100.00;101339.38;5058148;28;53807;-73
2023/05/06 00:29:17;;;;;;;;;1.00;0.00;;;;;17.65;100.00;101343.81;5054809;28;45265;-73
2023/05/06 00:31:44;;;;;;;;;1.00;1.00;;;;;17.63;100.00;101342.91;5072206;28;59200;-73
2023/05/06 00:34:09;;;;;;;;;1.00;1.00;;;;;17.65;100.00;101347.34;5050886;28;46237;-73
2023/05/06 00:36:36;;;;;;;;;1.00;1.00;;;;;17.63;100.00;101341.16;5043854;28;45481;-73
2023/05/06 00:39:02;;;;;;;;;1.00;1.00;;;;;17.62;100.00;101339.38;5044043;28;45448;-73
2023/05/06 00:41:31;;;;;;;;;2.00;1.00;;;;;17.59;100.00;101336.75;5052226;28;45406;-74
2023/05/06 00:43:57;;;;;;;;;2.00;1.00;;;;;17.59;100.00;101330.53;5057808;28;47361;-74
2023/05/06 00:46:22;;;;;;;;;1.00;1.00;;;;;17.55;100.00;101329.66;5054606;28;45476;-73
2023/05/06 00:48:47;;;;;;;;;4.00;1.00;;;;;17.56;100.00;101336.75;5047816;28;45476;-73
2023/05/06 00:51:13;;;;;;;;;1.00;1.00;;;;;17.45;100.00;101320.84;5035733;28;49275;-73
2023/05/06 00:53:39;;;;;;;;;2.00;2.00;;;;;17.47;100.00;101329.75;5054297;28;45809;-73
2023/05/06 00:56:04;;;;;;;;;0.00;0.00;;;;;17.43;100.00;101319.09;5056586;28;45392;-74
2023/05/06 00:58:30;;;;;;;;;1.00;1.00;;;;;17.44;100.00;101328.88;5056481;28;45425;-74
2023/05/06 01:00:55;;;;;;;;;1.00;1.00;;;;;17.42;100.00;101326.22;5058145;28;45610;-73
2023/05/06 01:03:21;;;;;;;;;2.00;1.00;;;;;17.39;100.00;101325.38;5055604;28;46902;-73
2023/05/06 01:06:20;;;;;;;;;2.00;2.00;;;;;17.38;100.00;101324.47;5058056;28;45487;-74
2023/05/06 01:09:04;;;;;;;;;2.00;2.00;;;;;17.35;100.00;101319.16;5050938;28;45445;-73
2023/05/06 01:11:37;;;;;;;;;4.00;3.00;;;;;17.36;100.00;101325.38;5055255;28;45567;-73
2023/05/06 01:14:05;;;;;;;;;2.00;2.00;;;;;17.35;100.00;101331.63;5047582;28;45492;-74
2023/05/06 01:16:35;;;;;;;;;2.00;2.00;;;;;17.34;100.00;101319.19;5050496;28;45584;-73
2023/05/06 01:19:01;;;;;;;;;2.00;2.00;;;;;17.31;100.00;101322.78;5057112;28;45316;-73
2023/05/06 01:21:33;;;;;;;;;3.67;2.00;;;;;17.33;100.00;101325.41;5057072;28;48818;-74
2023/05/06 01:23:58;;;;;;;;;1.67;1.67;;;;;17.33;100.00;101320.09;5051698;28;45844;-73
2023/05/06 01:26:24;;;;;;;;;2.00;1.00;;;;;17.31;100.00;101319.19;5050593;28;45588;-73
2023/05/06 01:28:49;;;;;;;;;1.00;1.00;;;;;17.29;100.00;101319.22;5058204;28;45328;-72
2023/05/06 01:31:39;;;;;;;;;1.00;1.00;;;;;17.29;100.00;101319.22;5049750;28;45348;-74
2023/05/06 01:34:11;;;;;;;;;1.33;1.33;;;;;17.27;100.00;101313.91;5047770;28;45662;-73
2023/05/06 01:37:00;;;;;;;;;1.00;1.00;;;;;17.29;100.00;101313.88;5180648;22;46442;-72
2023/05/06 01:39:29;;;;;;;;;3.00;2.00;;;;;17.27;100.00;101307.69;5018583;28;45301;-74
2023/05/06 01:41:58;;;;;;;;;1.00;1.00;;;;;17.28;100.00;101315.66;5010589;28;45436;-73
2023/05/06 01:44:26;;;;;;;;;2.00;2.00;;;;;17.29;100.00;101308.53;5030318;28;46268;-74
2023/05/06 01:46:52;;;;;;;;;2.00;2.00;;;;;17.27;100.00;101310.34;5018865;28;45586;-73
2023/05/06 01:49:19;;;;;;;;;1.00;1.00;;;;;17.27;100.00;101313.91;4999511;28;45584;-74
2023/05/06 01:51:49;;;;;;;;;2.00;2.00;;;;;17.24;100.00;101305.03;5016566;28;45622;-74
2023/05/06 01:54:14;;;;;;;;;1.00;1.00;;;;;17.25;100.00;101306.78;5032968;28;45874;-73
2023/05/06 01:56:40;;;;;;;;;2.00;2.00;;;;;17.24;100.00;101305.03;5031691;28;45419;-72
2023/05/06 01:59:05;;;;;;;;;1.67;1.67;;;;;17.20;100.00;101304.16;5013773;28;50927;-73
2023/05/06 02:01:30;;;;;;;;;3.00;1.33;;;;;17.18;100.00;101295.28;5029616;28;45400;-73
2023/05/06 02:03:56;;;;;;;;;1.67;1.67;;;;;17.15;100.00;101292.66;5020041;28;60434;-72
2023/05/06 02:06:21;;;;;;;;;4.33;2.00;;;;;17.14;100.00;101298.00;5035074;28;65051;-74
2023/05/06 02:08:46;;;;;;;;;3.00;3.00;;;;;17.08;100.00;101298.94;5003067;28;45671;-73
2023/05/06 02:11:12;;;;;;;;;3.00;1.00;;;;;17.04;100.00;101297.19;5032723;28;60648;-74
2023/05/06 02:13:37;;;;;;;;;4.00;1.33;;;;;17.00;100.00;101303.47;5033378;28;46610;-74
2023/05/06 02:16:03;;;;;;;;;2.00;2.00;;;;;16.94;100.00;101299.06;5035728;28;50127;-73
2023/05/06 02:18:28;;;;;;;;;2.00;2.00;;;;;16.88;100.00;101303.53;5033032;28;45515;-73
2023/05/06 02:20:53;;;;;;;;;3.67;1.00;;;;;16.88;100.00;101311.53;5019110;28;45349;-74
2023/05/06 02:23:19;;;;;;;;;2.33;2.00;;;;;16.85;100.00;101312.47;5032765;28;66455;-72
2023/05/06 02:25:45;;;;;;;;;2.00;2.00;;;;;16.83;100.00;101316.00;5031878;28;45414;-73
2023/05/06 02:28:10;;;;;;;;;2.00;2.00;;;;;16.80;100.00;101300.94;5015818;28;45623;-73
2023/05/06 02:30:36;;;;;;;;;1.67;1.67;;;;;16.76;100.00;101300.06;5014808;28;45473;-73
2023/05/06 02:33:01;;;;;;;;;2.00;2.00;;;;;16.73;100.00;101304.56;5022595;28;65737;-73
2023/05/06 02:35:27;;;;;;;;;2.00;2.00;;;;;16.76;100.00;101302.72;5034322;28;45396;-73
2023/05/06 02:37:52;;;;;;;;;3.00;2.00;;;;;16.76;100.00;101302.72;5034815;28;60665;-73
2023/05/06 02:40:17;;;;;;;;;2.67;1.00;;;;;16.76;100.00;101305.41;5031335;28;45587;-72
2023/05/06 02:42:43;;;;;;;;;1.00;1.00;;;;;16.77;100.00;101309.81;5030429;28;65140;-73
2023/05/06 02:45:08;;;;;;;;;3.00;3.00;;;;;16.75;100.00;101306.28;5030686;28;45396;-73
2023/05/06 02:47:34;;;;;;;;;3.00;3.00;;;;;16.70;100.00;101292.06;5035633;28;45352;-73
2023/05/06 02:49:59;;;;;;;;;3.67;2.00;;;;;16.75;100.00;101302.75;5031171;28;45423;-73
2023/05/06 02:52:24;;;;;;;;;3.00;3.00;;;;;16.73;100.00;101294.75;5033561;28;46462;-74
2023/05/06 02:54:50;;;;;;;;;4.00;1.33;;;;;16.72;100.00;101290.34;5007563;28;64626;-73
2023/05/06 02:57:16;;;;;;;;;3.00;3.00;;;;;16.73;100.00;101297.44;5013718;28;45702;-72
2023/05/06 02:59:41;;;;;;;;;4.33;3.67;;;;;16.73;100.00;101293.88;5033483;28;45459;-74
2023/05/06 03:02:07;;;;;;;;;4.00;2.00;;;;;16.72;100.00;101292.09;5035897;28;45455;-73
2023/05/06 03:04:32;;;;;;;;;2.33;2.00;;;;;16.68;100.00;101280.53;5000342;28;61280;-73
2023/05/06 03:06:57;;;;;;;;;2.00;2.00;;;;;16.66;100.00;101279.66;5035468;28;57786;-73
2023/05/06 03:09:23;;;;;;;;;2.67;2.00;;;;;16.70;100.00;101286.75;5013091;28;45465;-73
2023/05/06 03:11:48;;;;;;;;;2.00;2.00;;;;;16.70;100.00;101285.84;5016219;28;46658;-73
2023/05/06 03:14:14;;;;;;;;;2.00;2.00;;;;;16.71;100.00;101287.66;5032614;28;45376;-72
2023/05/06 03:16:40;;;;;;;;;2.00;2.00;;;;;16.69;100.00;101284.97;5028469;28;45387;-73
2023/05/06 03:19:05;;;;;;;;;3.00;3.00;;;;;16.74;100.00;101288.53;5018476;28;45313;-74
2023/05/06 03:21:31;;;;;;;;;1.00;1.00;;;;;16.74;100.00;101287.66;5026133;28;45977;-74
2023/05/06 03:23:56;;;;;;;;;2.00;2.00;;;;;16.74;100.00;101288.53;5026097;28;45295;-72
2023/05/06 03:26:22;;;;;;;;;5.00;2.00;;;;;16.74;100.00;101283.19;5011349;28;45431;-73
2023/05/06 03:28:47;;;;;;;;;3.00;2.00;;;;;16.75;100.00;101287.63;5031883;28;53784;-73
2023/05/06 03:31:13;;;;;;;;;3.33;2.67;;;;;16.71;100.00;101283.19;5030281;28;59591;-74
2023/05/06 03:33:38;;;;;;;;;2.33;2.33;;;;;16.70;100.00;101288.53;5016763;28;45468;-72
2023/05/06 03:36:04;;;;;;;;;2.00;2.00;;;;;16.72;100.00;101281.41;5028770;28;61215;-73
2023/05/06 03:38:29;;;;;;;;;3.33;2.00;;;;;16.69;100.00;101284.97;5014115;28;45575;-73
2023/05/06 03:40:55;;;;;;;;;2.33;2.33;;;;;16.70;100.00;101280.53;5032960;28;46424;-74
2023/05/06 03:43:20;;;;;;;;;3.00;3.00;;;;;16.68;100.00;101275.22;5011934;28;65244;-73
2023/05/06 03:45:46;;;;;;;;;2.00;2.00;;;;;16.66;100.00;101271.66;5015976;28;63580;-72
2023/05/06 03:48:11;;;;;;;;;3.00;1.67;;;;;16.68;100.00;101282.31;5014137;28;45463;-73
2023/05/06 03:50:37;;;;;;;;;2.33;2.33;;;;;16.65;100.00;101269.00;5031336;28;46669;-73
2023/05/06 03:53:02;;;;;;;;;4.00;3.00;;;;;16.65;100.00;101283.22;5014564;28;45581;-73
2023/05/06 03:55:28;;;;;;;;;3.00;2.00;;;;;16.65;100.00;101283.22;5009787;28;45437;-73
2023/05/06 03:57:53;;;;;;;;;3.00;3.00;;;;;16.68;100.00;101275.22;5025329;28;54498;-73
2023/05/06 04:00:19;;;;;;;;;2.67;2.00;;;;;16.68;100.00;101280.53;5031337;28;46641;-72
2023/05/06 04:02:44;;;;;;;;;2.67;2.67;;;;;16.68;100.00;101272.53;5032882;28;45618;-73
2023/05/06 04:05:10;;;;;;;;;2.33;2.33;;;;;16.68;100.00;101277.88;5032316;28;45708;-74
2023/05/06 04:07:35;;;;;;;;;2.00;2.00;;;;;16.70;100.00;101277.84;5032525;28;61283;-73
2023/05/06 04:10:00;;;;;;;;;2.00;2.00;;;;;16.69;100.00;101271.66;5031018;28;45998;-73
2023/05/06 04:12:26;;;;;;;;;2.33;2.33;;;;;16.70;100.00;101273.41;5029640;28;46263;-74
2023/05/06 04:14:51;;;;;;;;;4.33;4.33;;;;;16.71;100.00;101277.88;5034224;28;45442;-73
2023/05/06 04:17:17;;;;;;;;;4.67;3.00;;;;;16.71;100.00;101277.88;5022780;28;45542;-73
2023/05/06 04:19:42;;;;;;;;;2.67;2.67;;;;;16.69;100.00;101270.75;5025448;28;66017;-74
2023/05/06 04:22:07;;;;;;;;;2.33;2.33;;;;;16.72;100.00;101273.41;5002834;28;45451;-74
2023/05/06 04:24:33;;;;;;;;;3.67;2.00;;;;;16.71;100.00;101263.66;5011967;28;54754;-73
2023/05/06 04:26:58;;;;;;;;;2.67;2.00;;;;;16.73;100.00;101265.44;5026604;28;45543;-73
2023/05/06 04:29:24;;;;;;;;;2.00;2.00;;;;;16.75;100.00;101258.28;5037179;28;67139;-73
2023/05/06 04:31:50;;;;;;;;;2.00;2.00;;;;;16.74;100.00;101256.53;5036119;28;45480;-73
2023/05/06 04:34:16;;;;;;;;;2.67;2.67;;;;;16.77;100.00;101258.28;5013538;28;45441;-73
2023/05/06 04:36:42;;;;;;;;;1.00;1.00;;;;;16.76;100.00;101257.38;5019944;28;45627;-73
2023/05/06 04:39:09;;;;;;;;;5.00;4.00;;;;;16.73;100.00;101254.75;5032991;28;45733;-73
2023/05/06 04:41:34;;;;;;;;;4.67;2.00;;;;;16.75;100.00;101258.28;5033230;28;45528;-73
2023/05/06 04:44:00;;;;;;;;;2.67;2.00;;;;;16.73;100.00;101254.75;5036081;28;45534;-74
2023/05/06 04:46:25;;;;;;;;;3.00;3.00;;;;;16.74;100.00;101250.31;5036372;28;45394;-73
2023/05/06 04:48:51;;;;;;;;;3.00;2.00;;;;;16.76;100.00;101254.72;5036004;28;46588;-74
2023/05/06 04:51:16;;;;;;;;;3.00;3.00;;;;;16.80;100.00;101260.03;5034634;28;45404;-72
2023/05/06 04:53:42;;;;;;;;;3.00;3.00;;;;;16.81;100.00;101261.81;5006836;28;53354;-72
2023/05/06 04:56:07;;;;;;;;;3.00;3.00;;;;;16.82;100.00;101268.91;5024794;28;45417;-73
2023/05/06 04:58:32;;;;;;;;;5.00;3.00;;;;;16.80;100.00;101263.59;5033438;28;46555;-73
2023/05/06 05:01:03;;;;;;;;;3.67;3.00;;;;;16.80;100.00;101268.06;5019196;28;45429;-73
2023/05/06 05:03:28;;;;;;;;;2.67;2.67;;;;;16.80;100.00;101268.94;5027495;28;45451;-73
2023/05/06 05:05:53;;;;;;;;;2.00;2.00;;;;;16.85;100.00;101274.22;5028007;28;45440;-74
2023/05/06 05:08:19;;;;;;;;;2.00;1.00;;;;;16.85;100.00;101267.13;5034237;28;58413;-73
2023/05/06 05:10:44;;;;;;;;;7.33;2.67;;;;;16.91;100.00;101280.41;5036984;28;63339;-73
2023/05/06 05:13:10;;;;;;;;;3.00;3.00;;;;;16.94;100.00;101274.16;5034461;28;45353;-74
2023/05/06 05:15:36;;;;;;;;;2.00;2.00;;;;;16.99;100.00;101280.31;5012841;28;45480;-73
2023/05/06 05:18:02;;;;;;;;;5.67;4.00;;;;;17.00;100.00;101280.34;5035822;28;46988;-73
2023/05/06 05:20:27;;;;;;;;;4.00;3.00;;;;;17.01;100.00;101275.88;5027800;28;65982;-73
2023/05/06 05:22:52;;;;;;;;;6.33;2.00;;;;;17.04;100.00;101278.50;5034251;28;45740;-73
2023/05/06 05:25:18;;;;;;;;;2.33;2.00;;;;;17.08;100.00;101285.59;5026304;28;59955;-73
2023/05/06 05:27:43;;;;;;;;;3.00;3.00;;;;;17.13;100.00;101297.09;5026715;28;65297;-73
2023/05/06 05:30:09;;;;;;;;;4.67;3.00;;;;;17.17;100.00;101289.97;5026844;28;49269;-73
2023/05/06 05:32:34;;;;;;;;;3.00;2.33;;;;;17.19;100.00;101293.50;5027240;28;45439;-73
2023/05/06 05:34:59;;;;;;;;;3.00;3.00;;;;;17.18;100.00;101292.63;5026590;28;45491;-73
2023/05/06 05:37:25;;;;;;;;;4.33;3.67;;;;;17.21;100.00;101289.06;5031615;28;63315;-74
2023/05/06 05:39:50;;;;;;;;;3.00;3.00;;;;;17.21;100.00;101300.63;5030417;28;45843;-73
2023/05/06 05:42:16;;;;;;;;;4.00;3.00;;;;;17.22;100.00;101291.69;5036266;28;45440;-74
2023/05/06 05:44:41;;;;;;;;;3.00;3.00;;;;;17.22;100.00;101293.50;5036404;28;45518;-74
2023/05/06 05:47:06;;;;;;;;;3.00;3.00;;;;;17.24;100.00;101294.34;5027188;28;47488;-72
2023/05/06 05:49:32;;;;;;;;;2.67;2.67;;;;;17.28;100.00;101296.97;5033640;28;45440;-73
2023/05/06 05:51:57;;;;;;;;;6.00;3.00;;;;;17.34;100.00;101295.16;5024481;28;45365;-75
2023/05/06 05:54:22;;;;;;;;;2.00;2.00;;;;;17.38;100.00;101296.91;5031887;28;45507;-72
2023/05/06 05:56:49;;;;;;;;;4.67;2.00;;;;;17.39;100.00;101294.22;5018478;28;58756;-72
2023/05/06 05:59:14;;;;;;;;;5.33;3.00;;;;;17.43;100.00;101305.75;5030513;28;45507;-72
2023/05/06 06:01:39;;;;;;;;;3.67;2.00;;;;;17.44;100.00;101299.50;5012141;28;45646;-73
2023/05/06 06:04:05;;;;;;;;;3.00;3.00;;;;;17.46;100.00;101303.91;5012573;28;60093;-73
2023/05/06 06:06:30;;;;;;;;;4.33;3.00;;;;;17.49;100.00;101305.69;5033081;28;45847;-73
2023/05/06 06:08:56;;;;;;;;;4.00;3.00;;;;;17.52;100.00;101306.56;5029393;28;45307;-74
2023/05/06 06:11:21;;;;;;;;;3.00;3.00;;;;;17.54;100.00;101310.09;5013813;28;61477;-73
2023/05/06 06:13:46;;;;;;;;;4.00;3.00;;;;;17.58;100.00;101310.03;5034066;28;45483;-72
2023/05/06 06:16:12;;;;;;;;;3.00;3.00;;;;;17.62;100.00;101317.13;5027383;28;47339;-72
2023/05/06 06:18:37;;;;;;;;;4.00;2.33;;;;;17.64;100.00;101310.88;5022825;28;66741;-72
2023/05/06 06:21:03;;;;;;;;;3.67;3.00;;;;;17.73;100.00;101318.81;5031821;28;49244;-72
2023/05/06 06:23:28;;;;;;;;;5.00;2.00;;;;;17.79;100.00;101321.44;5029943;28;45546;-73
2023/05/06 06:25:53;;;;;;;;;3.00;3.00;;;;;17.84;100.00;101323.16;5032768;28;46723;-72
2023/05/06 06:28:19;;;;;;;;;3.00;2.00;;;;;17.92;100.00;101318.63;5033431;28;56031;-73
2023/05/06 06:30:44;;;;;;;;;2.67;2.67;;;;;17.98;100.00;101319.41;5035114;28;48700;-74
2023/05/06 06:33:10;;;;;;;;;6.00;3.00;;;;;18.05;100.00;101318.44;5030395;28;54271;-73
2023/05/06 06:35:35;;;;;;;;;3.67;2.00;;;;;18.14;100.00;101322.78;5032025;28;45679;-74
2023/05/06 06:38:01;;;;;;;;;2.67;2.00;;;;;18.23;100.00;101314.66;5017066;28;46069;-73
2023/05/06 06:40:27;;;;;;;;;4.00;2.33;;;;;18.28;100.00;101311.94;5035199;28;45420;-75
2023/05/06 06:42:52;;;;;;;;;5.33;2.00;;;;;18.35;100.00;101307.41;5030829;28;45444;-74
2023/05/06 06:45:17;;;;;;;;;2.00;2.00;;;;;18.40;100.00;101310.88;5029448;28;67798;-74
2023/05/06 06:47:43;;;;;;;;;4.67;3.00;;;;;18.42;100.00;101306.41;5031860;28;45862;-72
2023/05/06 06:50:08;;;;;;;;;4.00;4.00;;;;;18.45;100.00;101301.00;5037460;28;63140;-72
2023/05/06 06:52:34;;;;;;;;;2.00;2.00;;;;;18.51;100.00;101300.94;5026714;28;45739;-74
2023/05/06 06:55:00;;;;;;;;;8.33;2.67;;;;;18.56;100.00;101309.78;5016516;28;46702;-72
2023/05/06 06:57:26;;;;;;;;;2.00;2.00;;;;;18.61;100.00;101310.59;5016705;28;45479;-72
2023/05/06 06:59:52;;;;;;;;;2.00;2.00;;;;;18.68;100.00;101320.31;5028526;28;46911;-71
2023/05/06 07:02:18;;;;;;;;;3.00;3.00;;;;;18.76;100.00;101312.19;5029535;28;45627;-72
2023/05/06 07:04:43;;;;;;;;;3.00;3.00;;;;;18.82;100.00;101318.31;5029667;28;45838;-71
2023/05/06 07:07:09;;;;;;;;;5.33;4.00;;;;;18.89;100.00;101315.56;5013805;28;66412;-72
2023/05/06 07:09:34;;;;;;;;;4.67;3.33;;;;;18.96;100.00;101315.44;5016212;28;45496;-73
2023/05/06 07:12:00;;;;;;;;;6.00;3.00;;;;;18.96;100.00;101302.06;5034688;28;45185;-72
2023/05/06 07:14:26;;;;;;;;;5.33;3.33;;;;;19.06;100.00;101310.81;5034975;28;45883;-73
2023/05/06 07:16:51;;;;;;;;;3.33;2.00;;;;;19.11;100.00;101319.66;5031634;28;45317;-72
2023/05/06 07:19:17;;;;;;;;;3.67;2.33;;;;;19.15;100.00;101313.34;5014668;28;45602;-72
2023/05/06 07:21:42;;;;;;;;;3.00;3.00;;;;;19.21;100.00;101317.72;5026225;28;51907;-72
2023/05/06 07:24:08;;;;;;;;;3.67;3.00;;;;;19.25;100.00;101322.09;5013255;28;66835;-72
2023/05/06 07:26:36;;;;;;;;;4.00;4.00;;;;;19.28;100.00;101314.00;5024820;28;61025;-73
2023/05/06 07:29:03;;;;;;;;;6.33;3.33;;;;;19.35;100.00;101321.91;5023807;28;45504;-72
2023/05/06 07:31:30;;;;;;;;;2.00;2.00;;;;;19.40;100.00;101320.97;5026472;28;45577;-72
2023/05/06 07:33:57;;;;;;;;;4.67;3.67;;;;;19.44;100.00;101317.28;5015584;28;45693;-73
2023/05/06 07:36:22;;;;;;;;;3.33;2.33;;;;;19.45;100.00;101319.09;5027098;28;45400;-72
2023/05/06 07:38:48;;;;;;;;;2.33;2.33;;;;;19.47;100.00;101315.47;5015458;28;45358;-72
2023/05/06 07:41:13;;;;;;;;;4.33;3.00;;;;;19.52;100.00;101318.06;5030025;28;58150;-72
2023/05/06 07:43:38;;;;;;;;;2.67;2.33;;;;;19.52;100.00;101315.38;5006095;28;65912;-72
2023/05/06 07:46:04;;;;;;;;;5.67;2.67;;;;;19.54;100.00;101318.91;5025401;28;46001;-72
2023/05/06 07:48:30;;;;;;;;;2.67;2.33;;;;;19.60;100.00;101326.84;5021164;28;45428;-72
2023/05/06 07:50:56;;;;;;;;;3.00;3.00;;;;;19.64;100.00;101317.84;4993553;28;45458;-72
2023/05/06 07:53:21;;;;;;;;;4.00;3.00;;;;;19.69;100.00;101318.66;5028605;28;46146;-71
2023/05/06 07:55:47;;;;;;;;;3.00;3.00;;;;;19.71;100.00;101322.22;5025071;28;58656;-72
2023/05/06 07:58:12;;;;;;;;;3.33;3.33;;;;;19.80;100.00;101332.72;5011975;28;49134;-73
2023/05/06 08:00:37;;;;;;;;;5.67;2.00;;;;;19.86;100.00;101329.03;5028327;28;51475;-72
2023/05/06 08:03:03;;;;;;;;;3.00;3.00;;;;;19.92;100.00;101330.72;5031689;28;45431;-73
2023/05/06 08:05:28;;;;;;;;;3.67;3.67;;;;;19.99;100.00;101329.72;5032586;28;58821;-71
2023/05/06 08:07:54;;;;;;;;;4.67;4.33;;;;;20.04;100.00;101326.03;5035627;28;45411;-71
2023/05/06 08:10:21;;;;;;;;;4.33;3.67;;;;;20.12;100.00;101331.22;5014636;28;45562;-71
2023/05/06 08:12:46;;;;;;;;;4.67;3.33;;;;;20.16;100.00;101324.88;5034610;28;46188;-72
2023/05/06 08:15:11;;;;;;;;;3.33;3.33;;;;;20.21;100.00;101323.00;5030359;28;56580;-73
2023/05/06 08:17:36;;;;;;;;;6.00;3.33;;;;;20.27;100.00;101327.34;5031046;28;46420;-73
2023/05/06 08:20:02;;;;;;;;;3.33;2.67;;;;;20.33;100.00;101330.75;5034171;28;56988;-72
2023/05/06 08:22:27;;;;;;;;;3.00;3.00;;;;;20.40;100.00;101335.09;5025125;28;47506;-73
2023/05/06 08:24:53;;;;;;;;;4.33;3.00;;;;;20.41;100.00;101334.19;5032645;28;63371;-72
2023/05/06 08:27:19;;;;;;;;;5.00;3.00;;;;;20.45;100.00;101326.03;5027672;28;45792;-72
2023/05/06 08:29:45;;;;;;;;;2.00;2.00;;;;;20.48;100.00;101318.84;5035293;28;45624;-72
2023/05/06 08:32:10;;;;;;;;;2.00;2.00;;;;;20.52;100.00;101322.38;5017821;28;45777;-71
2023/05/06 08:34:36;;;;;;;;;9.33;7.00;;;;;20.53;100.00;101319.63;5035895;28;45487;-70
2023/05/06 08:37:01;;;;;;;;;3.00;3.00;;;;;20.53;100.00;101319.63;5030735;28;59134;-75
2023/05/06 08:39:26;;;;;;;;;2.00;2.00;;;;;20.56;100.00;101324.03;5031156;28;56245;-75
2023/05/06 08:41:52;;;;;;;;;4.67;3.00;;;;;20.62;100.00;101307.81;5032939;28;46148;-74
2023/05/06 08:44:19;;;;;;;;;4.67;2.33;;;;;20.78;100.00;101317.28;5029816;28;45443;-72
2023/05/06 08:46:45;;;;;;;;;2.00;2.00;;;;;20.91;100.00;101313.38;5005857;28;45560;-74
2023/05/06 08:49:11;;;;;;;;;3.00;1.67;;;;;20.98;100.00;101316.78;5015258;28;45509;-73
2023/05/06 08:51:37;;;;;;;;;1.00;1.00;;;;;21.02;100.00;101314.91;5013796;28;66391;-73
2023/05/06 08:54:03;;;;;;;;;2.00;2.00;;;;;21.08;100.00;101320.13;5012092;28;45503;-75
2023/05/06 08:56:32;;;;;;;;;4.00;2.00;;;;;21.11;100.00;101318.28;5032154;28;45444;-76
2023/05/06 08:58:57;;;;;;;;;4.00;2.00;;;;;21.16;100.00;101321.72;5005537;28;45468;-75
2023/05/06 09:01:25;;;;;;;;;3.33;3.00;;;;;21.14;100.00;101317.28;5014416;28;48235;-75
2023/05/06 09:03:51;;;;;;;;;3.00;1.67;;;;;21.19;100.00;101320.75;4995278;28;46089;-75
2023/05/06 09:06:16;;;;;;;;;1.00;1.00;;;;;21.21;100.00;101313.56;5023784;28;45509;-76
2023/05/06 09:08:41;;;;;;;;;2.33;2.00;;;;;21.26;100.00;101314.31;5026831;28;59964;-76
2023/05/06 09:11:24;;;;;;;;;1.00;1.00;;;;;21.33;100.00;101315.06;5032605;28;60463;-75
2023/05/06 09:13:50;;;;;;;;;3.00;0.33;;;;;21.41;100.00;101321.13;5028786;28;45952;-76
2023/05/06 09:16:27;;;;;;;;;2.67;2.67;;;;;21.45;100.00;101317.44;5025123;28;45511;-76
2023/05/06 09:18:52;;;;;;;;;2.00;1.67;;;;;21.51;100.00;101319.06;5028447;28;45637;-77
2023/05/06 09:21:18;;;;;;;;;5.67;3.00;;;;;21.55;100.00;101320.75;5027254;28;47386;-78
2023/05/06 09:23:43;;;;;;;;;4.33;1.67;;;;;21.57;100.00;101322.50;5011346;28;45768;-76
2023/05/06 09:26:09;;;;;;;;;4.00;4.00;;;;;21.60;100.00;101322.41;5012960;28;46566;-77
2023/05/06 09:28:34;;;;;;;;;1.00;1.00;;;;;21.60;100.00;101319.72;5015668;28;45625;-78
2023/05/06 09:31:00;;;;;;;;;3.00;2.00;;;;;21.63;100.00;101316.09;5013600;28;45668;-76
2023/05/06 09:33:26;;;;;;;;;2.00;2.00;;;;;21.65;100.00;101315.09;5007650;28;60068;-73
2023/05/06 09:35:51;;;;;;;;;3.67;3.00;;;;;21.66;100.00;101316.84;5030236;28;45515;-72
2023/05/06 09:38:17;;;;;;;;;2.33;2.33;;;;;21.71;100.00;101314.94;5008037;28;58154;-73
2023/05/06 09:40:42;;;;;;;;;4.33;3.00;;;;;21.78;100.00;101320.13;5029459;28;64220;-72
2023/05/06 09:43:09;;;;;;;;;2.00;2.00;;;;;21.83;100.00;101319.06;5029521;28;45556;-72
2023/05/06 09:45:35;;;;;;;;;3.67;3.67;;;;;21.89;100.00;101309.94;5012976;28;45865;-72
2023/05/06 09:48:00;;;;;;;;;7.00;2.67;;;;;21.98;100.00;101313.28;5029176;28;45526;-71
2023/05/06 09:50:26;;;;;;;;;4.33;2.00;;;;;22.04;100.00;101312.22;5012773;28;46293;-72
2023/05/06 09:52:53;;;;;;;;;1.33;1.33;;;;;22.08;100.00;101310.31;4992306;28;46145;-72
2023/05/06 09:55:20;;;;;;;;;5.33;3.00;;;;;22.12;100.00;101303.97;5024464;28;45563;-75
2023/05/06 09:57:47;;;;;;;;;2.00;2.00;;;;;22.16;100.00;101302.97;5030640;28;45526;-71
2023/05/06 10:00:13;;;;;;;;;3.00;3.00;;;;;22.20;100.00;101294.72;5007140;28;45821;-72
2023/05/06 10:02:46;;;;;;;;;3.67;2.67;;;;;22.26;100.00;101295.47;5009657;28;45500;-72
2023/05/06 10:05:12;;;;;;;;;5.33;2.00;;;;;22.31;100.00;101280.06;5031538;28;45512;-72
2023/05/06 10:07:38;;;;;;;;;2.00;2.00;;;;;22.36;100.00;101297.84;5013607;28;45582;-72
2023/05/06 10:10:08;;;;;;;;;2.67;2.00;;;;;22.42;100.00;101294.06;5029649;28;45527;-72
2023/05/06 10:12:35;;;;;;;;;2.67;2.00;;;;;22.47;100.00;101294.81;5013681;28;45547;-72
2023/05/06 10:15:00;;;;;;;;;3.33;3.00;;;;;22.53;100.00;101285.66;5010318;28;45513;-72
2023/05/06 10:17:26;;;;;;;;;3.67;2.00;;;;;22.60;100.00;101288.16;5029535;28;45434;-72
2023/05/06 10:19:56;;;;;;;;;2.00;2.00;;;;;22.62;100.00;101280.88;5027240;28;69505;-73
2023/05/06 10:22:43;;;;;;;;;1.33;1.33;;;;;22.66;100.00;101287.06;5011692;28;47742;-73
2023/05/06 10:25:36;;;;;;;;;5.00;2.00;;;;;22.66;100.00;101289.75;5032612;28;45347;-73
2023/05/06 10:28:07;;;;;;;;;1.33;1.33;;;;;22.68;100.00;101280.69;5012286;28;45932;-73
2023/05/06 10:30:33;;;;;;;;;4.33;1.00;;;;;22.74;100.00;101275.13;5010530;28;45945;-72
2023/05/06 10:33:03;;;;;;;;;7.00;4.00;;;;;22.82;100.00;101282.94;5027741;28;45598;-72
2023/05/06 10:36:00;;;;;;;;;2.00;2.00;;;;;22.86;100.00;101278.34;5016543;28;45635;-72
2023/05/06 10:38:29;;;;;;;;;2.00;2.00;;;;;22.88;100.00;101280.09;5006037;28;45511;-72
2023/05/06 10:40:55;;;;;;;;;2.00;2.00;;;;;22.89;100.00;101275.56;5004847;28;46730;-72
2023/05/06 10:43:31;;;;;;;;;3.33;3.33;;;;;22.93;100.00;101272.72;5006319;28;46249;-72
2023/05/06 10:46:07;;;;;;;;;5.00;2.00;;;;;22.99;100.00;101268.94;5001838;28;45590;-72
2023/05/06 10:48:59;;;;;;;;;4.33;2.67;;;;;23.05;100.00;101271.44;5011902;28;45623;-73
2023/05/06 10:51:27;;;;;;;;;4.00;2.67;;;;;23.09;100.00;101269.53;4984120;28;47513;-73
2023/05/06 10:54:02;;;;;;;;;2.00;2.00;;;;;23.14;100.00;101264.88;5003011;28;45487;-73
2023/05/06 10:56:36;;;;;;;;;2.00;2.00;;;;;23.22;100.00;101262.78;5009114;28;45521;-72
2023/05/06 10:59:09;;;;;;;;;2.67;2.67;;;;;23.29;100.00;101267.03;5013039;28;45560;-75
2023/05/06 11:01:36;;;;;;;;;2.00;2.00;;;;;23.35;100.00;101257.84;5011890;28;46460;-73
2023/05/06 11:04:19;;;;;;;;;3.00;3.00;;;;;23.42;100.00;101254.88;5011092;28;45813;-73
2023/05/06 11:06:47;;;;;;;;;3.00;3.00;;;;;23.51;100.00;101250.97;5009992;28;45411;-73
2023/05/06 11:09:17;;;;;;;;;4.00;4.00;;;;;23.53;100.00;101255.38;5010431;28;45507;-73
2023/05/06 11:11:45;;;;;;;;;5.00;2.00;;;;;23.49;100.00;101251.03;5011408;28;46053;-72
2023/05/06 11:14:12;;;;;;;;;3.00;2.00;;;;;23.44;100.00;101244.94;5012036;28;45625;-73